This site, now in its 15th season, is a labour of love and fun from one of Ottawa's most avid time trialists and number crunchers. It adheres to and is permitted by the laws of Canada, promotes the objectives of every bicycle club whose results are shown, and is donated free of charge by myself for your enjoyment and usage. If you would like results from series you ride in to be shown here, give me (celia@drmath.ca) a shout!


Index Page
ATT OTT WTT AATT CFCTT VVVTT
Help resultformat:
Case-sensitive

OBC Open TT Series - 2018-Jul-12 - 15km (Rockliffe Pkwy)

Ottawa Weather (18:00): Partly Cloudy. Temp.erature: 28.4°C, Wind: ESE 8km/h, Humidex: 29, Relative humidity: 27%, Dew point: 8°C, Pressure: 102.2kPa, Visibility: 24km.
Ottawa Weather (19:00): Mainly Sunny. Temp.erature: 27.8°C, Wind: SE 5km/h, Humidex: *, Relative humidity: 29%, Dew point: 8°C, Pressure: 102.2kPa, Visibility: 24km.
Ottawa Weather (20:00): Mainly Sunny. Temp.erature: 24.8°C, Wind: SSE 8km/h, Humidex: 26, Relative humidity: 39%, Dew point: 10°C, Pressure: 102.2kPa, Visibility: 24km.

Send photos with description (when/where/what) of yourself on or off of bike to celia@drmath.ca

 
 

BESTS?
 
1 Miles, Carson OBC 19:17 46.672 1/60 JUM 1/3 0.9540
2 Amos, Ron  OBC/RWR 19:28 46.233 2/60 VCM 1/7  
3 Brazeau, Marc RDO 19:40 45.763 3/60 VBM 1/12 1.0387
4 Diaz, Rodrigo  OBC/EUR 19:50 45.378 4/60 VBM 2/12 0.9775
5 Boers, Daniel OBC 20:47 43.304 5/60 SEM 1/3 1.0072
6 Carrier, Damien RPO 20:50 43.200 6/60 VBM 3/12 0.9691
7 Martins, Alex OBC 21:03 42.755 7/60 VBM 4/12 0.9555
8 Tsilemos, Jim RWR 21:05 42.688 8/60 VBM 5/12 1.0979
9 Courteille, Anaïs & Weldon, Robbi --- 21:21 42.155 9/60 TAN 1/1 1.0024
10 Schuck, Peter  OBC/RWR 21:22 42.122 10/60 VDM 1/9 0.9517
11 Lacroix, Jacob OBC 21:31 41.828 11/60 JUM 2/3 1.0211
12 Page, Graham OBC/NTF 21:55 41.065 12/60 VAM 1/4 0.9136
13 Campbell, Colin  OBC 22:06 40.724 13/60 VCM 2/7 0.9380
14 Budgell, Glen  OBC 22:15 40.449 14/60 VDM 2/9 0.9688
15 Wright, David OBC 22:20 40.299 15/60 VCM 3/7 1.0734
16 Corpuz, John OBC 22:21 40.268 16/60 VAM 2/4 1.0733
17 Tregunno, Peter  OBC 22:24 40.179 17/60 VBM 6/12 0.9757
18 Montgrain, Louis RDO 22:26 40.119 18/60 VAM 3/4 1.1325
19 Lawrence, Will OBC 22:30 40.000 19/60 SEM 2/3 1.0566
20 Rivoche, Michael WQW 22:40 39.706 20/60 VDM 3/9 1.0111
21 Benavente-Babace, Ainara OBC 22:42 39.648 21/60 VAF 1/2 1.0425
22 Dumas, Dominik OBC 22:59 39.159 22/60 JUM 3/3 1.0965
23 Courtman, David OBC 23:01 39.102 23/60 VDM 4/9 1.1384
24 Leblanc, Marc EUR 23:04 39.017 24/60 VBM 7/12 1.0641
25 Messier, Jill WQW 23:05 38.989 25/60 SEF 1/1 1.1475
26 Rudnicki, Dave WQW 23:07 38.933 26/60 VCM 4/7 0.9616
27 Deschamps, Martin WQW 23:16 38.682 27/60 VBM 8/12 1.0043
28 Pey Perez, Jon OBC 23:18 38.627 28/60 VAM 4/4 1.0929
29 Milette, Laury OBC 23:35 38.163 29/60 CAF 1/4 1.0257
30 Deavy, Carol  OBC 24:05 37.370 30/60 VCF 1/3 0.9429
31 Lavergne, Jazmine OBC 24:10 37.241 31/60 CAF 2/4 1.0872
32 Gilchrist, Ryan  OBC 24:14 37.139 32/60 VCM 5/7 0.9734
33 Gustyn, Andrew EUR 24:16 37.088 33/60 VCM 6/7 1.1199
34 Martins, Henrique CDO 24:18 37.037 34/60 MIM 1/1 1.0737
35 Boulanger, Gaetan  IND 24:30 36.735 35/60 VEM 1/4 1.0372
36 Lafrance, Linda OBC 24:31 36.710 36/60 VCF 2/3 1.0646
37 Bourne, Bill OBC 24:35 36.610 37/60 VDM 5/9 1.0040
38 Déry, Nicolas  OBC 24:36 36.585 38/60 VBM 9/12 1.0082
39 Williams, Mallory OBC 24:37 36.561 39/60 CAF 3/4 1.0266
40 Arsenault, Ariane CDO 25:00 36.000 40/60 CAF 4/4 0.9742
41 Buffa, Alex  OBC 25:01 35.976 41/60 VBM 10/12  
42 Dumas, Marcel OBC 25:04 35.904 42/60 VCM 7/7 1.0100
43 Balint, John OBC 25:06 35.857 43/60 VEM 2/4 0.9862
44 Veilleux, François OBC 25:19 35.550 44/60 VBM 11/12 0.9981
45 Austen, Ian  OBC 25:20 35.526 45/60 VDM 6/9 1.0603
46 Imbrogno, Giorgio  OBC 25:22 35.480 46/60 VDM 7/9 0.9497
47 Burdett, Avery  OBC 25:37 35.133 47/60 VEM 3/4 0.9614
48 Gervais, Dominique OBC 25:49 34.861 48/60 JUF 1/2 0.9731
49 Shand, Peter OBC 26:27 34.026 49/60 VDM 8/9 0.9719
50 Dore, Morley OBC 26:52 33.499 50/60 VEM 4/4  
51 Fortier, Frederic OBC 27:06 33.210 51/60 VBM 12/12 1.1207
52 Lavergne, Jayde OBC 27:12 33.088 52/60 MIF 1/1 0.9441
53 Whittey, Janet OBC 27:16 33.007 53/60 VCF 3/3 0.8922
54 Lau, Adrian IND 27:20 32.927 54/60 SEM 3/3 0.9286
55 Monette, Gary WQW 27:27 32.787 55/60 VDM 9/9 1.0295
Tardif, Magalie OBC 27:27 32.787 55/60 JUF 2/2 0.9658
57 Czaban, Christina  OBC 27:50 32.335 57/60 VAF 2/2  
Y 58 Real, Taralyn OBC 30:30 29.508 58/60 PWF 1/1  
59 Berthelot, Denis OBC 32:02 28.096 59/60 PWM 1/1 0.7944
60 McInnis, Celia 
(on a hybrid - euipped and decorated)
OBC/ABC 34:21 26.201 60/60 VDF 1/1 0.4811
 
Average Speed of all of the above 60 finishes (900km in 24:08:38):37.277
>>>Average of the Average Speeds for these 60 finishes37.768<<<
 

The number of data records shown above is 60
The server processing of your query took: 1 wallclock secs ( 0.08 usr + 0.00 sys = 0.08 CPU)

Thanks to our Helpers: Michel Bernier, Mark Manners, Alex McKnight, Jess Raymond, Peter Tregunno, Marc Véronneau

     


Mar 30 (Good Friday)
May 1 (10km) May 3 May 8 (10km) May 10 May 15 (10km) May 17 May 22 (10km) May 24 May 29 (10km) May 31
Jun 5 Jun 5 Jun 7 Jun 12 Jun 12 Jun 14 Jun 17 (40km) Jun 19 Jun 19 Jun 21 Jun 26 Jun 26 Jun 28
Jul 3 Jul 3 Jul 5 Jul 8 (40km) Jul 10 Jul 10
  Jul 12  
Jul 17 Jul 17 Jul 19 Jul 24 Jul 24 Jul 26 Jul 31 Jul 31
Aug 2 Aug 5 (40km) Aug 7 Aug 7 Aug 9 Aug 14 Aug 14 Aug 16 Aug 21 Aug 21 Aug 23 Aug 28 Aug 28 (Invitational) Aug 30#1 (Eddie Merckx) Aug 30#2 (With Aero)
Sep 2 (40km) Sep 4 Sep 6 Sep 11 Sep 13 Sep 18

OTT Rankings
Best       Best by category
WTT Rankings for All Participants
5 Best Speeds (≥3 15km, ≤1 10km)     5 Best Speeds (≥3 15km, ≤1 10km) by category
OTT Best Three 15km Rankings
Overall     by category     age-Hcap Female   age-Hcap Male
Other years
TT Calculator All TT People All TT events
ABC Home VVV Home
CKAP GOLD MEDAL
Other Links

Note: OTT data from 2003 through 2006-Apr-14 and 2007-Apr-06-? and WTT from 2008-? is taken from the official OBC site.

Please send your comments and suggestions to: Celia McInnis
Copyright © 1998-2011 Celia McInnis. All rights reserved. Links are welcomed.